Time;durP1;ratioP1;P1;durP2;ratioP2;P2;SDS_P1;SDS_P2;PMS_P1;PMS_P2;Temp;Humidity;BMP_temperature;BMP_pressure;BME280_temperature;BME280_humidity;BME280_pressure;Samples;Min_cycle;Max_cycle;Signal;HPM_P1;HPM_P2
2022/07/19 00:02:09;;;;;;;3.03;2.03;;;23.60;94.80;;;23.71;46.34;101454.97;4859244;28;97949;-55
2022/07/19 00:04:36;;;;;;;2.00;1.77;;;23.60;94.80;;;23.70;46.47;101453.25;4853585;28;97370;-52
2022/07/19 00:07:03;;;;;;;2.37;2.17;;;23.60;95.00;;;23.72;46.85;101451.31;4860886;28;99536;-55
2022/07/19 00:09:29;;;;;;;4.00;3.13;;;23.60;95.00;;;23.71;46.65;101449.59;4853839;28;97517;-59
2022/07/19 00:11:55;;;;;;;4.20;2.40;;;23.60;95.00;;;23.73;46.52;101458.44;4860973;28;97892;-57
2022/07/19 00:14:21;;;;;;;2.47;2.00;;;23.60;94.90;;;23.74;46.64;101454.75;4842726;28;97970;-54
2022/07/19 00:16:48;;;;;;;2.30;2.10;;;23.60;95.00;;;23.73;46.70;101458.44;4856325;28;97092;-52
2022/07/19 00:19:14;;;;;;;2.57;2.00;;;23.60;95.00;;;23.72;46.91;101468.34;4862343;28;98816;-56
2022/07/19 00:21:40;;;;;;;1.90;1.63;;;23.60;95.10;;;23.73;46.86;101453.91;4855109;28;98628;-54
2022/07/19 00:24:07;;;;;;;2.40;2.20;;;23.60;95.00;;;23.74;46.68;101457.44;4861894;28;97358;-56
2022/07/19 00:26:33;;;;;;;3.43;2.30;;;23.60;95.00;;;23.72;46.50;101452.19;4857537;28;97463;-56
2022/07/19 00:29:01;;;;;;;1.90;1.70;;;23.60;95.00;;;23.72;46.71;101456.69;4880024;28;97545;-51
2022/07/19 00:31:27;;;;;;;2.10;1.80;;;23.60;95.00;;;23.71;46.82;101455.84;4893765;28;97095;-56
2022/07/19 00:33:53;;;;;;;2.40;1.90;;;23.60;95.10;;;23.71;46.72;101461.22;4885240;28;101335;-55
2022/07/19 00:36:20;;;;;;;2.63;2.07;;;23.50;95.00;;;23.69;46.74;101452.41;4873576;28;97289;-54
2022/07/19 00:38:46;;;;;;;4.50;2.87;;;23.60;95.20;;;23.67;47.96;101448.13;4891653;28;97306;-52
2022/07/19 00:41:13;;;;;;;4.40;3.00;;;23.60;96.00;;;23.66;47.68;101452.66;4883768;28;98192;-55
2022/07/19 00:43:43;;;;;;;1.93;1.80;;;23.50;95.90;;;23.66;46.81;101446.41;4896036;28;96760;-54
2022/07/19 00:46:18;;;;;;;2.00;1.70;;;23.50;95.20;;;23.67;46.67;101448.13;4894519;28;97440;-51
2022/07/19 00:48:44;;;;;;;2.10;1.87;;;23.50;95.10;;;23.64;46.70;101437.59;4897111;28;97359;-55
2022/07/19 00:51:11;;;;;;;2.33;1.70;;;23.50;95.10;;;23.66;46.86;101446.41;4908283;28;97138;-51
2022/07/19 00:53:40;;;;;;;2.90;1.90;;;23.50;95.10;;;23.63;46.71;101441.28;4888408;28;97117;-50
2022/07/19 00:56:08;;;;;;;2.20;2.00;;;23.50;95.10;;;23.65;47.40;101442.00;4900214;28;97042;-49
2022/07/19 00:58:38;;;;;;;2.23;1.73;;;23.50;95.70;;;23.62;46.95;101428.78;4890159;28;98730;-51
2022/07/19 01:01:06;;;;;;;2.90;2.00;;;23.50;95.30;;;23.61;46.98;101435.16;4898886;28;97683;-54
2022/07/19 01:03:36;;;;;;;2.47;1.73;;;23.50;95.20;;;23.59;46.76;101435.28;4894032;28;97209;-54
2022/07/19 01:06:03;;;;;;;4.07;2.33;;;23.50;95.20;;;23.59;47.49;101437.13;4897639;28;97149;-51
2022/07/19 01:08:29;;;;;;;2.77;2.27;;;23.50;95.60;;;23.59;47.28;101437.13;4893889;28;98397;-53
2022/07/19 01:10:55;;;;;;;2.90;2.27;;;23.50;95.60;;;23.55;47.18;101432.88;4892923;28;98808;-55
2022/07/19 01:13:21;;;;;;;2.10;1.90;;;23.40;95.50;;;23.55;47.19;101432.88;4895907;28;97043;-53
2022/07/19 01:15:46;;;;;;;2.47;1.97;;;23.40;95.40;;;23.54;47.05;101436.56;4893136;28;97487;-52
2022/07/19 01:18:12;;;;;;;2.43;2.13;;;23.40;95.40;;;23.56;47.46;101431.91;4887614;28;97368;-53
2022/07/19 01:20:38;;;;;;;2.00;1.80;;;23.40;95.80;;;23.56;47.34;101432.75;4886423;28;98445;-52
2022/07/19 01:23:04;;;;;;;1.87;1.77;;;23.40;95.80;;;23.56;47.05;101429.22;4897326;28;97176;-55
2022/07/19 01:25:36;;;;;;;2.23;1.93;;;23.40;95.50;;;23.57;46.96;101430.94;4887747;28;97221;-52
2022/07/19 01:28:05;;;;;;;2.27;1.90;;;23.40;95.40;;;23.56;47.00;101429.22;4889317;28;97359;-52
2022/07/19 01:30:31;;;;;;;2.27;1.77;;;23.40;95.40;;;23.55;47.03;101419.41;4887647;28;99308;-53
2022/07/19 01:32:57;;;;;;;2.47;1.97;;;23.40;95.40;;;23.57;46.98;101425.53;4893111;28;96772;-50
2022/07/19 01:35:24;;;;;;;3.27;2.10;;;23.40;95.30;;;23.56;47.00;101430.06;4881009;28;97144;-55
2022/07/19 01:37:51;;;;;;;4.27;2.83;;;23.40;95.40;;;23.58;47.14;101427.28;4890772;28;97514;-51
2022/07/19 01:40:18;;;;;;;2.33;2.13;;;23.50;95.50;;;23.60;47.03;101425.34;4896766;28;97572;-53
2022/07/19 01:42:46;;;;;;;2.03;1.77;;;23.40;95.60;;;23.55;47.17;101427.50;4881124;28;97413;-52
2022/07/19 01:45:13;;;;;;;2.00;1.50;;;23.40;95.60;;;23.56;47.14;101423.81;4893779;28;96948;-53
2022/07/19 01:47:40;;;;;;;2.97;2.23;;;23.40;95.50;;;23.56;46.90;101418.44;4890872;28;97317;-52
2022/07/19 01:50:09;;;;;;;2.17;1.80;;;23.40;95.40;;;23.57;46.92;101425.53;4888161;28;97412;-56
2022/07/19 01:52:35;;;;;;;1.60;1.50;;;23.40;95.40;;;23.59;47.01;101418.25;4887859;28;96815;-54
2022/07/19 01:55:01;;;;;;;1.90;1.57;;;23.40;95.40;;;23.58;46.78;101425.47;4889591;28;97352;-55
2022/07/19 01:57:28;;;;;;;4.27;1.80;;;23.40;95.60;;;23.60;46.63;101420.81;4896154;28;98799;-52
2022/07/19 01:59:54;;;;;;;2.20;2.00;;;23.40;95.10;;;23.60;46.68;101414.59;4881602;28;101785;-53
2022/07/19 02:02:20;;;;;;;1.60;1.50;;;23.40;95.10;;;23.59;46.91;101415.56;4879649;28;97630;-51
2022/07/19 02:04:46;;;;;;;1.90;1.40;;;23.40;95.30;;;23.57;46.98;101420.16;4895996;28;97111;-51
2022/07/19 02:07:12;;;;;;;1.47;1.37;;;23.40;95.40;;;23.55;46.83;101420.28;4891874;28;97622;-49
2022/07/19 02:09:38;;;;;;;2.67;1.73;;;23.40;95.50;;;23.55;47.07;101405.97;4894914;28;97459;-55
2022/07/19 02:12:04;;;;;;;1.50;1.40;;;23.40;95.50;;;23.55;47.13;101405.97;4908936;28;108675;-56
2022/07/19 02:14:30;;;;;;;1.80;1.50;;;23.40;95.50;;;23.54;46.96;101407.78;4894121;28;96876;-55
2022/07/19 02:16:56;;;;;;;1.87;1.60;;;23.40;95.50;;;23.56;47.06;101402.28;4889762;28;97111;-54
2022/07/19 02:19:22;;;;;;;1.83;1.67;;;23.40;95.50;;;23.56;47.00;101403.16;4888335;28;97312;-53
2022/07/19 02:21:48;;;;;;;2.43;1.70;;;23.40;95.40;;;23.57;47.01;101401.31;4892080;28;96684;-48
2022/07/19 02:24:14;;;;;;;1.83;1.73;;;23.40;95.40;;;23.57;46.89;101398.63;4900634;28;97266;-48
2022/07/19 02:26:40;;;;;;;1.60;1.50;;;23.40;95.40;;;23.57;46.87;101401.31;4895490;28;97239;-48
2022/07/19 02:29:06;;;;;;;1.90;1.60;;;23.40;95.30;;;23.56;46.81;101403.16;4904712;28;96772;-49
2022/07/19 02:31:33;;;;;;;2.63;1.70;;;23.40;95.20;;;23.55;46.84;101400.56;4901118;28;98113;-48
2022/07/19 02:33:59;;;;;;;1.77;1.67;;;23.40;95.30;;;23.57;46.97;101398.63;4915644;28;97766;-48
2022/07/19 02:36:25;;;;;;;1.77;1.67;;;23.40;95.20;;;23.55;46.68;101395.19;4895998;28;97150;-54
2022/07/19 02:38:52;;;;;;;1.50;1.40;;;23.40;95.20;;;23.53;46.87;101395.31;4880534;28;97100;-52
2022/07/19 02:41:18;;;;;;;1.93;1.60;;;23.40;95.40;;;23.53;46.98;101398.00;4893600;28;97091;-53
2022/07/19 02:43:44;;;;;;;1.60;1.50;;;23.40;95.40;;;23.53;46.95;101400.69;4894435;28;97054;-55
2022/07/19 02:46:10;;;;;;;2.20;1.70;;;23.40;95.50;;;23.54;46.89;101399.72;4890630;28;96920;-50
2022/07/19 02:48:36;;;;;;;2.37;1.53;;;23.40;95.20;;;23.53;46.68;101397.16;4897158;28;97163;-52
2022/07/19 02:51:02;;;;;;;1.60;1.50;;;23.40;94.90;;;23.51;46.99;101405.34;4887582;28;97224;-52
2022/07/19 02:53:27;;;;;;;4.70;2.60;;;23.30;95.20;;;23.50;46.67;101402.78;4909425;28;97455;-50
2022/07/19 02:55:53;;;;;;;1.70;1.50;;;23.30;95.00;;;23.49;47.00;101403.75;4885407;28;100399;-52
2022/07/19 02:58:19;;;;;;;2.00;1.60;;;23.20;95.40;;;23.48;46.92;101396.66;4917011;28;96680;-55
2022/07/19 03:00:45;;;;;;;1.57;1.40;;;23.20;95.00;;;23.46;47.13;101396.78;4876645;28;101011;-54
2022/07/19 03:03:57;;;;;;;2.10;1.33;;;23.20;95.50;;;23.44;47.27;101394.22;4888694;28;97212;-52
2022/07/19 03:05:57;;;;;;;2.27;1.60;;;23.20;95.40;;;23.42;47.32;101404.22;4868287;28;97265;-52
2022/07/19 03:08:23;;;;;;;1.57;1.47;;;23.20;95.60;;;23.43;47.26;101407.78;4886322;28;98883;-53
2022/07/19 03:10:49;;;;;;;1.67;1.57;;;23.20;95.60;;;23.43;47.54;101410.47;4883697;28;97331;-53
2022/07/19 03:13:15;;;;;;;2.40;1.57;;;23.20;95.80;;;23.43;47.24;101414.03;4892651;28;97131;-49
2022/07/19 03:15:40;;;;;;;1.70;1.60;;;23.20;95.80;;;23.44;47.43;101407.69;4886790;28;97313;-50
2022/07/19 03:18:06;;;;;;;2.00;1.40;;;23.20;95.80;;;23.45;47.26;101409.38;4888015;28;98365;-53
2022/07/19 03:20:32;;;;;;;1.83;1.70;;;23.20;95.70;;;23.47;47.33;101397.63;4889729;28;96763;-48
2022/07/19 03:22:58;;;;;;;1.60;1.20;;;23.30;95.70;;;23.48;47.21;101402.03;4888792;28;97689;-50
2022/07/19 03:25:24;;;;;;;2.07;1.70;;;23.30;95.70;;;23.49;47.33;101406.44;4887321;28;97375;-50
2022/07/19 03:27:50;;;;;;;1.90;1.57;;;23.30;95.50;;;23.49;47.46;101406.44;4883742;28;97621;-51
2022/07/19 03:30:16;;;;;;;1.40;1.30;;;23.30;95.70;;;23.49;47.24;101403.75;4898176;28;99110;-52
2022/07/19 03:32:42;;;;;;;1.93;1.40;;;23.30;95.70;;;23.49;47.27;101407.31;4883866;28;96798;-53
2022/07/19 03:35:08;;;;;;;2.03;1.83;;;23.30;95.40;;;23.48;46.73;101404.75;4899047;28;96851;-52
2022/07/19 03:37:34;;;;;;;1.90;1.80;;;23.30;94.70;;;23.43;47.22;101413.16;4895396;28;97621;-52
2022/07/19 03:40:00;;;;;;;2.00;1.73;;;23.20;95.00;;;23.40;47.28;101408.00;4890026;28;98557;-54
2022/07/19 03:42:26;;;;;;;1.47;1.30;;;23.10;95.50;;;23.39;47.55;101407.16;4894818;28;96982;-54
2022/07/19 03:44:52;;;;;;;1.93;1.40;;;23.10;95.80;;;23.37;47.37;101403.72;4887842;28;97041;-55
2022/07/19 03:47:17;;;;;;;1.20;1.10;;;23.10;95.80;;;23.38;47.59;101407.28;4866896;28;108625;-55
2022/07/19 03:49:43;;;;;;;1.50;1.27;;;23.10;95.90;;;23.38;47.46;101405.44;4886034;28;96998;-52
2022/07/19 03:52:09;;;;;;;1.50;1.40;;;23.10;95.90;;;23.39;47.55;101407.16;4890807;28;97077;-53
2022/07/19 03:54:35;;;;;;;3.93;1.50;;;23.20;95.90;;;23.37;47.36;101395.66;4886806;28;97132;-50
2022/07/19 03:57:00;;;;;;;1.53;1.43;;;23.20;95.80;;;23.38;47.56;101397.38;4886347;28;98911;-54
2022/07/19 03:59:26;;;;;;;1.80;1.67;;;23.20;95.80;;;23.37;47.17;101398.34;4890398;28;98065;-51
2022/07/19 04:01:52;;;;;;;2.00;1.67;;;23.20;95.10;;;23.37;47.56;101398.34;4893561;28;97526;-53
2022/07/19 04:04:18;;;;;;;1.67;1.57;;;23.20;95.90;;;23.37;47.50;101408.25;4887132;28;101558;-52
2022/07/19 04:06:44;;;;;;;1.90;1.63;;;23.10;95.90;;;23.34;47.60;101393.22;4885575;28;97467;-52
2022/07/19 04:09:10;;;;;;;1.70;1.57;;;23.10;95.90;;;23.34;47.67;101398.59;4888237;28;97370;-51
2022/07/19 04:11:36;;;;;;;2.77;2.20;;;23.10;96.00;;;23.31;47.13;101404.22;4888828;28;97503;-53
2022/07/19 04:14:02;;;;;;;2.07;1.47;;;23.10;95.40;;;23.29;47.77;101394.53;4896951;28;97052;-52
2022/07/19 04:16:28;;;;;;;1.67;1.50;;;23.10;96.10;;;23.27;47.77;101402.72;4870989;28;97463;-61
2022/07/19 04:18:54;;;;;;;1.63;1.37;;;23.00;96.20;;;23.28;47.78;101398.19;4894258;28;101329;-51
2022/07/19 04:21:20;;;;;;;1.50;1.40;;;23.10;96.20;;;23.29;47.68;101402.59;4862853;28;97264;-48
2022/07/19 04:23:45;;;;;;;1.50;1.40;;;23.10;96.20;;;23.29;47.80;101400.78;4875474;28;97334;-49
2022/07/19 04:26:11;;;;;;;1.87;1.70;;;23.10;96.20;;;23.30;47.78;101407.88;4889811;28;97101;-52
2022/07/19 04:28:37;;;;;;;1.80;1.70;;;23.10;96.10;;;23.31;47.65;101406.91;4882649;28;97044;-50
2022/07/19 04:31:03;;;;;;;1.63;1.40;;;23.10;96.10;;;23.32;47.68;101405.94;4868314;28;97692;-48
2022/07/19 04:33:29;;;;;;;1.83;1.60;;;23.10;96.10;;;23.33;47.50;101409.47;4882111;28;97226;-53
2022/07/19 04:35:55;;;;;;;1.30;1.20;;;23.20;96.00;;;23.34;47.57;101408.50;4896235;28;97081;-54
2022/07/19 04:38:21;;;;;;;1.53;1.43;;;23.10;96.00;;;23.36;47.64;101407.41;4893437;28;97276;-52
2022/07/19 04:40:48;;;;;;;1.53;1.43;;;23.20;95.90;;;23.36;47.54;101407.41;4880168;28;98305;-51
2022/07/19 04:43:13;;;;;;;1.60;1.50;;;23.20;96.00;;;23.38;47.75;101412.66;4892738;28;96932;-53
2022/07/19 04:45:41;;;;;;;1.63;1.50;;;23.20;96.00;;;23.38;47.74;101416.22;4889708;28;97543;-52
2022/07/19 04:48:07;;;;;;;2.37;1.60;;;23.20;96.00;;;23.40;47.50;101408.00;4897013;28;96718;-53
2022/07/19 04:50:33;;;;;;;5.63;3.10;;;23.20;96.00;;;23.41;47.08;101409.72;4896690;28;96830;-51
2022/07/19 04:52:59;;;;;;;1.47;1.37;;;23.20;95.60;;;23.41;47.53;101401.66;4877149;28;96989;-50
2022/07/19 04:55:25;;;;;;;1.77;1.67;;;23.20;96.10;;;23.40;47.76;101408.88;4898760;28;96632;-54
2022/07/19 04:57:51;;;;;;;1.40;1.27;;;23.20;96.00;;;23.42;47.53;101401.53;4880227;28;96929;-53
2022/07/19 05:00:17;;;;;;;1.27;1.17;;;23.20;96.00;;;23.44;47.47;101404.13;4894401;28;96989;-54
2022/07/19 05:02:43;;;;;;;1.87;1.67;;;23.30;96.00;;;23.45;47.47;101401.31;4892348;28;101169;-49
2022/07/19 05:05:09;;;;;;;1.20;1.10;;;23.30;96.00;;;23.46;47.62;101404.84;4901922;28;98205;-53
2022/07/19 05:07:36;;;;;;;1.53;1.43;;;23.30;96.00;;;23.47;47.64;101403.03;4889929;28;96742;-54
2022/07/19 05:10:04;;;;;;;1.20;1.10;;;23.30;95.90;;;23.47;47.52;101393.13;4885848;28;97358;-53
2022/07/19 05:12:30;;;;;;;1.50;1.40;;;23.30;95.90;;;23.47;47.43;101395.81;4865747;28;96986;-54
2022/07/19 05:14:56;;;;;;;1.33;1.23;;;23.30;95.90;;;23.48;47.49;101396.66;4894337;28;97976;-53
2022/07/19 05:17:22;;;;;;;1.30;1.20;;;23.40;95.90;;;23.48;47.48;101393.97;4893749;28;97079;-55
2022/07/19 05:19:47;;;;;;;1.30;1.20;;;23.30;95.90;;;23.48;47.53;101396.66;4884221;28;97081;-52
2022/07/19 05:22:13;;;;;;;3.57;2.60;;;23.40;95.90;;;23.48;47.05;101396.66;4886504;28;97242;-51
2022/07/19 05:24:39;;;;;;;1.47;1.37;;;23.40;95.50;;;23.49;47.37;101395.69;4877978;28;100962;-53
2022/07/19 05:27:05;;;;;;;1.60;1.50;;;23.30;95.80;;;23.50;47.34;101392.00;4884706;28;105485;-52
2022/07/19 05:29:31;;;;;;;4.67;2.67;;;23.40;95.90;;;23.50;46.92;101400.09;4885919;28;96840;-54
2022/07/19 05:31:56;;;;;;;3.40;2.60;;;23.40;95.30;;;23.51;46.61;101396.41;4895493;28;97336;-52
2022/07/19 05:34:22;;;;;;;1.77;1.67;;;23.40;95.20;;;23.49;46.99;101396.53;4897927;28;99285;-53
2022/07/19 05:36:48;;;;;;;1.47;1.37;;;23.30;95.70;;;23.48;47.27;101410.13;4877809;28;97102;-55
2022/07/19 05:39:14;;;;;;;1.73;1.63;;;23.30;95.80;;;23.48;47.33;101402.03;4887135;28;100983;-52
2022/07/19 05:41:40;;;;;;;2.60;2.00;;;23.30;95.80;;;23.49;46.95;101401.06;4893193;28;97496;-55
2022/07/19 05:44:06;;;;;;;3.93;2.70;;;23.30;95.40;;;23.50;46.31;101397.41;4892648;28;97037;-54
2022/07/19 05:46:32;;;;;;;2.23;2.03;;;23.30;95.00;;;23.51;47.00;101405.34;4891485;28;97353;-51
2022/07/19 05:48:58;;;;;;;2.40;1.93;;;23.40;95.40;;;23.51;47.15;101404.50;4887744;28;97299;-51
2022/07/19 05:51:24;;;;;;;2.47;1.33;;;23.30;95.40;;;23.52;46.99;101403.50;4873718;28;97960;-53
2022/07/19 05:53:49;;;;;;;4.90;2.70;;;23.40;95.70;;;23.54;46.25;101404.25;4894206;28;97750;-51
2022/07/19 05:56:15;;;;;;;2.40;2.00;;;23.40;94.70;;;23.54;46.20;101407.78;4887425;28;96818;-54
2022/07/19 05:58:41;;;;;;;1.70;1.43;;;23.40;95.30;;;23.53;47.15;101407.91;4893455;28;114008;-51
2022/07/19 06:01:19;;;;;;;4.37;2.87;;;23.40;95.70;;;23.54;46.66;101406.94;4887969;28;97218;-54
2022/07/19 06:03:57;;;;;;;7.33;2.73;;;23.40;95.20;;;23.56;45.21;101410.38;4869948;28;97564;-53
2022/07/19 06:06:26;;;;;;;2.00;1.80;;;23.40;94.30;;;23.54;46.69;101406.94;4895893;28;97342;-51
2022/07/19 06:08:52;;;;;;;1.60;1.40;;;23.40;95.30;;;23.54;47.14;101415.00;4873388;28;96989;-53
2022/07/19 06:11:18;;;;;;;5.77;2.70;;;23.40;95.60;;;23.54;45.66;101398.88;4897059;28;97427;-53
2022/07/19 06:13:47;;;;;;;3.40;1.67;;;23.40;94.50;;;23.52;47.34;101406.19;4894601;28;97193;-52
2022/07/19 06:16:13;;;;;;;1.43;1.33;;;23.40;95.70;;;23.51;47.33;101409.88;4899417;28;97854;-54
2022/07/19 06:18:39;;;;;;;1.70;1.60;;;23.40;95.70;;;23.51;47.29;101402.66;4873503;28;98633;-53
2022/07/19 06:21:10;;;;;;;1.40;1.30;;;23.40;95.70;;;23.47;47.60;101403.88;4895322;28;97270;-52
2022/07/19 06:23:37;;;;;;;1.43;1.33;;;23.40;95.80;;;23.48;47.41;101405.59;4882113;28;97633;-48
2022/07/19 06:26:05;;;;;;;1.37;1.23;;;23.40;95.80;;;23.47;47.45;101403.03;4885589;28;97853;-54
2022/07/19 06:28:31;;;;;;;1.30;1.20;;;23.40;95.80;;;23.50;47.45;101402.78;4893496;28;97009;-54
2022/07/19 06:30:58;;;;;;;7.80;2.63;;;23.40;95.80;;;23.56;46.45;101402.28;4893749;28;97228;-54
2022/07/19 06:33:24;;;;;;;5.53;2.40;;;23.50;95.10;;;23.58;45.90;101406.63;4892483;28;97688;-52
2022/07/19 06:35:50;;;;;;;2.10;1.73;;;23.50;94.70;;;23.61;47.41;101413.59;4893150;28;98191;-48
2022/07/19 06:38:16;;;;;;;4.33;2.47;;;23.50;95.60;;;23.69;44.93;101419.22;4909535;28;97175;-47
2022/07/19 06:40:43;;;;;;;4.20;2.17;;;23.60;94.10;;;23.70;46.71;101421.78;4899553;28;97458;-51
2022/07/19 06:43:09;;;;;;;3.67;2.70;;;23.60;95.20;;;23.71;45.59;101417.28;4898872;28;97336;-47
2022/07/19 06:45:35;;;;;;;2.47;1.60;;;23.60;94.60;;;23.73;46.78;101416.19;4895856;28;98187;-55
2022/07/19 06:48:01;;;;;;;3.43;2.50;;;23.70;95.20;;;23.73;45.83;101415.34;4897694;28;96928;-48
2022/07/19 06:50:27;;;;;;;6.25;2.40;;;23.60;94.70;;;23.79;45.75;101419.38;4887918;28;97476;-52
2022/07/19 06:52:52;;;;;;;2.50;1.67;;;23.70;94.10;;;23.84;46.33;101417.16;4893262;28;106784;-50
2022/07/19 06:55:18;;;;;;;2.10;1.30;;;23.80;94.70;;;23.83;46.50;101416.31;4898599;28;96910;-53
2022/07/19 06:57:44;;;;;;;6.87;2.10;;;23.80;94.90;;;23.86;45.88;101426.81;4894787;28;97470;-50
2022/07/19 07:00:12;;;;;;;3.20;2.45;;;23.80;94.20;;;23.84;46.25;101423.41;4890136;28;97039;-51
2022/07/19 07:02:39;;;;;;;2.75;1.85;;;23.80;94.50;;;23.86;46.40;101415.19;4897699;28;98997;-53
2022/07/19 07:05:07;;;;;;;9.50;3.42;;;23.80;94.70;;;23.85;45.74;101411.66;4899362;28;97159;-53
2022/07/19 07:07:33;;;;;;;1.52;1.42;;;23.80;94.30;;;23.78;46.68;101418.50;4891588;28;97040;-53
2022/07/19 07:10:01;;;;;;;1.80;1.70;;;23.80;95.10;;;23.72;47.00;101421.69;4892467;28;97100;-49
2022/07/19 07:12:30;;;;;;;2.35;1.38;;;23.70;95.20;;;23.74;46.92;101428.69;4896445;28;97659;-52
2022/07/19 07:14:56;;;;;;;6.50;2.87;;;23.70;95.20;;;23.83;46.27;101421.69;4893888;28;101525;-54
2022/07/19 07:17:22;;;;;;;3.95;2.13;;;23.70;94.30;;;23.87;46.27;101423.19;4890355;28;97118;-54
2022/07/19 07:19:48;;;;;;;2.13;1.40;;;23.80;94.70;;;23.84;46.43;101419.84;4890770;28;101751;-51
2022/07/19 07:22:14;;;;;;;4.22;2.45;;;23.80;94.90;;;23.86;46.57;101417.88;4896288;28;98632;-53
2022/07/19 07:24:40;;;;;;;6.27;2.07;;;23.80;94.80;;;23.80;46.60;101416.56;4882641;28;102153;-53
2022/07/19 07:27:07;;;;;;;7.25;3.10;;;23.80;95.00;;;23.85;45.45;101408.09;4893758;28;97288;-55
2022/07/19 07:29:33;;;;;;;2.35;1.75;;;23.80;93.70;;;23.74;46.78;101408.97;4887107;28;98488;-52
2022/07/19 07:31:59;;;;;;;2.83;2.03;;;23.70;95.00;;;23.65;47.16;101409.69;4896327;28;97239;-51
2022/07/19 07:34:25;;;;;;;1.90;1.70;;;23.70;95.20;;;23.65;47.06;101397.06;4892978;28;97202;-53
2022/07/19 07:36:51;;;;;;;9.60;2.73;;;23.70;95.30;;;23.65;47.17;101412.38;4889337;28;97661;-51
2022/07/19 07:39:17;;;;;;;3.92;1.88;;;23.60;95.30;;;23.73;46.68;101408.13;4895656;28;97633;-52
2022/07/19 07:41:43;;;;;;;3.53;2.10;;;23.70;94.70;;;23.80;46.51;101405.78;4888366;28;113924;-55
2022/07/19 07:44:09;;;;;;;1.43;1.20;;;23.80;94.50;;;23.63;46.97;101403.56;4890702;28;96911;-54
2022/07/19 07:46:35;;;;;;;1.33;1.20;;;23.70;95.00;;;23.60;46.96;101395.75;4890171;28;98485;-54
2022/07/19 07:49:01;;;;;;;4.60;2.33;;;23.70;95.20;;;23.75;46.18;101402.59;4888311;28;98797;-55
2022/07/19 07:51:27;;;;;;;2.08;1.60;;;23.70;94.40;;;23.76;46.68;101398.06;4889268;28;97788;-55
2022/07/19 07:53:53;;;;;;;6.93;2.33;;;23.70;95.40;;;23.80;46.61;101399.53;4890065;28;97482;-52
2022/07/19 07:56:19;;;;;;;2.22;1.92;;;23.80;94.70;;;23.76;46.67;101404.31;4883758;28;98966;-52
2022/07/19 07:58:45;;;;;;;3.90;2.10;;;23.80;95.00;;;23.73;46.92;101400.03;4870596;28;97197;-53
2022/07/19 08:01:11;;;;;;;5.07;2.53;;;23.70;95.00;;;23.72;46.96;101394.75;4882906;28;98760;-54
2022/07/19 08:03:37;;;;;;;4.50;2.10;;;23.70;95.10;;;23.80;44.17;101389.63;4880969;28;97291;-51
2022/07/19 08:06:03;;;;;;;4.18;2.75;;;23.80;93.30;;;23.76;46.69;101404.31;4882616;28;97482;-51
2022/07/19 08:08:29;;;;;;;7.13;2.72;;;23.80;94.80;;;23.75;46.84;101402.59;4875192;28;98271;-58
2022/07/19 08:10:56;;;;;;;4.22;3.05;;;23.80;95.10;;;23.58;47.19;101392.28;4871194;28;105715;-56
2022/07/19 08:13:22;;;;;;;4.20;2.78;;;23.70;95.10;;;23.62;46.64;101388.38;4877318;28;97525;-52
2022/07/19 08:15:49;;;;;;;3.78;3.35;;;23.60;94.70;;;23.61;47.24;101384.00;4867191;28;100181;-54
2022/07/19 08:18:15;;;;;;;4.65;2.97;;;23.70;95.20;;;23.70;46.91;101383.25;4876509;28;98015;-50
2022/07/19 08:20:42;;;;;;;5.78;4.47;;;23.70;95.20;;;23.64;46.85;101384.59;4882539;28;97541;-55
2022/07/19 08:23:07;;;;;;;5.63;4.75;;;23.70;95.20;;;23.70;46.88;101384.09;4876852;28;97337;-55
2022/07/19 08:25:34;;;;;;;7.20;5.45;;;23.70;95.10;;;23.63;46.95;101382.03;4858782;28;98545;-55
2022/07/19 08:28:00;;;;;;;4.97;3.97;;;23.60;95.10;;;23.71;46.83;101376.88;4870361;28;99103;-53
2022/07/19 08:30:27;;;;;;;7.00;5.57;;;23.60;95.10;;;23.69;46.87;101376.13;4859371;28;98675;-51
2022/07/19 08:32:53;;;;;;;6.17;5.43;;;23.70;95.10;;;23.58;47.14;101374.31;4860830;28;99577;-56
2022/07/19 08:35:18;;;;;;;9.57;5.97;;;23.70;95.10;;;23.52;47.25;101371.19;4859753;28;99724;-52
2022/07/19 08:37:44;;;;;;;9.10;6.53;;;23.60;95.30;;;23.53;47.34;101375.59;4855876;28;98396;-52
2022/07/19 08:40:10;;;;;;;6.50;4.22;;;23.60;95.30;;;23.69;46.37;101373.44;4859627;28;99886;-52
2022/07/19 08:42:37;;;;;;;7.07;3.90;;;23.70;94.70;;;23.79;46.27;101366.34;4863617;28;99559;-54
2022/07/19 08:45:07;;;;;;;9.10;5.37;;;23.80;94.60;;;23.82;46.12;101366.09;4868961;28;99761;-54
2022/07/19 08:47:35;;;;;;;8.00;5.35;;;23.80;94.70;;;23.71;46.35;101369.66;4859211;28;97903;-53
2022/07/19 08:50:06;;;;;;;6.10;3.80;;;23.80;94.80;;;23.73;46.65;101358.78;4857968;28;98393;-55
2022/07/19 08:52:33;;;;;;;5.30;3.90;;;23.70;94.90;;;23.90;45.97;101366.34;4862877;28;99083;-55
2022/07/19 08:54:59;;;;;;;5.43;3.97;;;23.90;94.30;;;23.88;45.74;101365.63;4861942;28;98619;-54
2022/07/19 09:00:12;;;;;;;5.55;4.43;;;23.90;94.10;;;23.80;46.31;101362.69;4876963;28;100267;-54
2022/07/19 09:02:38;;;;;;;5.30;2.90;;;23.90;94.60;;;23.73;46.63;101356.09;4895124;28;97349;-52
2022/07/19 09:05:10;;;;;;;6.03;5.20;;;23.70;94.80;;;23.73;46.59;101361.47;4894687;28;97473;-52
2022/07/19 09:07:38;;;;;;;8.40;7.50;;;23.80;94.90;;;23.41;47.45;101351.34;4893112;28;96816;-51
2022/07/19 09:10:22;;;;;;;10.32;8.43;;;23.50;95.10;;;23.49;47.14;101358.84;4895511;28;97900;-54
2022/07/19 09:13:03;;;;;;;11.35;8.88;;;23.50;95.10;;;23.47;47.31;101351.88;4897219;28;98266;-52
2022/07/19 09:15:40;;;;;;;5.13;2.90;;;23.50;95.20;;;23.53;47.11;101348.69;4897556;28;97167;-61
2022/07/19 09:18:30;;;;;;;3.47;2.17;;;23.50;95.20;;;23.70;46.44;101345.53;4897408;28;96922;-54
2022/07/19 09:21:03;;;;;;;8.95;7.75;;;23.60;93.20;;;23.76;46.21;101350.44;4898074;28;100969;-51
2022/07/19 09:23:30;;;;;;;3.38;2.70;;;23.80;94.40;;;23.73;45.61;101350.69;4897759;28;97612;-55
2022/07/19 09:25:59;;;;;;;9.93;8.50;;;23.80;93.50;;;23.76;46.52;101345.06;4896417;28;99154;-53
2022/07/19 09:28:30;;;;;;;6.18;5.15;;;23.80;94.70;;;23.88;46.00;101344.06;4899920;28;97099;-51
2022/07/19 09:30:59;;;;;;;9.60;7.25;;;23.90;93.90;;;23.79;46.32;101350.19;4891345;28;100534;-55
2022/07/19 09:33:28;;;;;;;9.60;8.18;;;23.80;94.50;;;23.77;46.47;101340.53;4898026;28;98355;-55
2022/07/19 09:36:15;;;;;;;6.05;4.57;;;23.80;94.90;;;23.77;44.78;101338.69;4890981;28;96946;-53
2022/07/19 09:38:43;;;;;;;7.75;4.15;;;23.80;93.20;;;23.84;46.19;101342.59;4891323;28;97212;-56
2022/07/19 09:41:20;;;;;;;8.05;6.20;;;23.80;94.10;;;23.98;45.90;101333.38;4891993;28;102358;-55
2022/07/19 09:44:05;;;;;;;9.40;8.05;;;24.00;94.30;;;23.99;45.55;101335.09;4879268;28;97501;-56
2022/07/19 09:46:32;;;;;;;10.70;9.00;;;24.10;93.90;;;23.80;46.38;101335.75;4891960;28;97346;-54
2022/07/19 09:49:14;;;;;;;10.05;9.02;;;23.90;94.30;;;23.80;46.51;101324.97;4894888;28;96943;-57
2022/07/19 09:51:46;;;;;;;9.80;8.45;;;23.90;94.50;;;23.66;46.81;101330.59;4892907;28;97387;-52
2022/07/19 09:54:21;;;;;;;9.60;8.60;;;23.80;94.70;;;23.47;47.25;101327.66;4899918;28;96971;-52
2022/07/19 09:56:52;;;;;;;9.40;8.43;;;23.60;94.90;;;23.47;47.23;101323.13;4898060;28;96975;-48
2022/07/19 09:59:20;;;;;;;11.88;8.55;;;23.60;95.00;;;23.37;47.55;101328.34;4900423;28;96968;-54
2022/07/19 10:01:52;;;;;;;4.18;2.47;;;23.50;95.10;;;23.48;46.98;101318.59;4892140;28;97392;-55
2022/07/19 10:04:24;;;;;;;5.20;2.50;;;23.50;95.00;;;23.83;46.28;101319.31;4898563;28;97908;-53
2022/07/19 10:06:52;;;;;;;10.10;8.10;;;23.80;94.50;;;23.69;46.40;101316.88;4893223;28;98199;-56
2022/07/19 10:09:21;;;;;;;7.20;2.40;;;23.80;94.40;;;23.77;44.75;101322.53;4894825;28;97469;-51
2022/07/19 10:11:47;;;;;;;5.35;3.30;;;23.80;92.70;;;23.85;46.06;101311.97;4887692;28;97496;-54
2022/07/19 10:14:13;;;;;;;9.43;7.70;;;23.90;94.40;;;23.66;46.53;101307.22;4876937;28;96962;-50
2022/07/19 10:16:48;;;;;;;9.85;8.82;;;23.80;94.50;;;23.44;47.20;101297.31;4885397;28;98028;-54